Ogden, Kansas
Current Conditions -  °F | °C
As of 1:52 PM on Wednesday 17 Dec 2014 (Local Time) from KMHK Reporting Station
Overcast Overcast  
Wind Chill: 21°   Ceiling: 7000
Heat Index: 28°   Visibility: 10mi
Dew Point: 19°   Wind: 7mph
Humidity: 69%   Direction: 70°ENE
Pressure: 30.24"   Gusts: NA
Location:  39.11°N, 96.71°W
Report Text: KMHK 171952Z 07006KT 10SM OVC070 M02/M07 A3024 RMK AO2 SLP253 T10221072
Loading
Personal Weather Stations






























Interactive Weather Map New forecast layout! Learn more

10-Day Weather Forecast

Advertisements
Track Severe Weather on mobile